createdAt,value
2022-10-04T00:02:22.829Z,16.49
2022-10-04T00:04:57.249Z,16.59
2022-10-04T00:07:30.024Z,16.38
2022-10-04T00:10:00.930Z,16.49
2022-10-04T00:12:34.783Z,16.54
2022-10-04T00:15:06.243Z,16.49
2022-10-04T00:17:35.977Z,16.53
2022-10-04T00:20:28.863Z,16.54
2022-10-04T00:23:28.583Z,16.61
2022-10-04T00:25:58.761Z,16.57
2022-10-04T00:28:45.072Z,16.59
2022-10-04T00:31:19.023Z,16.58
2022-10-04T00:33:49.272Z,16.53
2022-10-04T00:36:40.170Z,16.55
2022-10-04T00:39:34.270Z,16.48
2022-10-04T00:42:13.208Z,16.53
2022-10-04T00:44:48.225Z,16.27
2022-10-04T00:47:25.305Z,16.33
2022-10-04T00:49:58.748Z,16.31
2022-10-04T00:52:30.159Z,16.37
2022-10-04T00:55:01.067Z,16.33
2022-10-04T00:57:32.652Z,16.22
2022-10-04T01:00:05.503Z,16.25
2022-10-04T01:02:39.678Z,16.26
2022-10-04T01:05:10.874Z,16.22
2022-10-04T01:07:44.006Z,16.24
2022-10-04T01:10:15.756Z,16.23
2022-10-04T01:12:50.896Z,16.24
2022-10-04T01:15:33.746Z,16.25
2022-10-04T01:18:14.557Z,16.26
2022-10-04T01:20:54.687Z,16.26
2022-10-04T01:23:40.601Z,16.26
2022-10-04T01:26:38.513Z,16.10
2022-10-04T01:29:10.649Z,16.12
2022-10-04T01:31:41.235Z,16.00
2022-10-04T01:34:09.937Z,15.99
2022-10-04T01:36:38.162Z,16.00
2022-10-04T01:39:08.707Z,15.87
2022-10-04T01:41:47.004Z,15.80
2022-10-04T01:44:24.752Z,15.83
2022-10-04T01:46:56.210Z,15.57
2022-10-04T01:49:30.416Z,15.63
2022-10-04T01:52:03.522Z,15.71
2022-10-04T01:54:35.769Z,15.45
2022-10-04T01:57:12.183Z,15.57
2022-10-04T01:59:45.377Z,15.45
2022-10-04T02:02:23.161Z,15.60
2022-10-04T02:04:55.091Z,15.52
2022-10-04T02:07:26.171Z,15.34
2022-10-04T02:09:59.712Z,15.53
2022-10-04T02:12:28.284Z,15.70
2022-10-04T02:14:57.847Z,15.50
2022-10-04T02:17:29.428Z,15.32
2022-10-04T02:19:58.528Z,15.38
2022-10-04T02:22:27.317Z,15.26
2022-10-04T02:24:59.426Z,15.33
2022-10-04T02:27:29.075Z,15.32
2022-10-04T02:30:01.980Z,15.38
2022-10-04T02:32:49.686Z,15.39
2022-10-04T02:35:19.156Z,15.52
2022-10-04T02:37:49.724Z,15.52
2022-10-04T02:40:23.064Z,15.60
2022-10-04T02:42:59.773Z,15.61
2022-10-04T02:45:34.191Z,15.70
2022-10-04T02:48:07.302Z,15.79
2022-10-04T02:50:40.995Z,15.77
2022-10-04T02:53:15.470Z,15.75
2022-10-04T02:55:45.251Z,15.70
2022-10-04T02:58:26.828Z,15.57
2022-10-04T03:00:58.998Z,15.69
2022-10-04T03:03:29.151Z,15.72
2022-10-04T03:06:02.430Z,15.75
2022-10-04T03:08:33.322Z,15.79
2022-10-04T03:11:05.896Z,15.77
2022-10-04T03:13:34.505Z,15.72
2022-10-04T03:16:02.651Z,15.65
2022-10-04T03:18:32.237Z,15.63
2022-10-04T03:21:02.677Z,15.62
2022-10-04T03:23:33.042Z,15.53
2022-10-04T03:26:10.909Z,15.45
2022-10-04T03:28:39.400Z,15.53
2022-10-04T03:31:07.595Z,15.33
2022-10-04T03:33:35.842Z,15.31
2022-10-04T03:36:04.864Z,15.25
2022-10-04T03:38:35.697Z,15.37
2022-10-04T03:41:05.245Z,15.37
2022-10-04T03:43:38.558Z,15.45
2022-10-04T03:46:09.398Z,15.47
2022-10-04T03:48:41.236Z,15.42
2022-10-04T03:51:15.064Z,15.43
2022-10-04T03:53:45.831Z,15.44
2022-10-04T03:56:19.998Z,15.43
2022-10-04T03:58:50.763Z,15.38
2022-10-04T04:01:35.470Z,15.45
2022-10-04T04:04:13.018Z,15.46
2022-10-04T04:06:45.737Z,15.48
2022-10-04T04:09:22.792Z,15.55
2022-10-04T04:11:55.526Z,15.37
2022-10-04T04:14:27.357Z,15.33
2022-10-04T04:17:16.363Z,15.35
2022-10-04T04:19:47.556Z,15.29
2022-10-04T04:22:19.063Z,15.36
2022-10-04T04:24:47.650Z,15.29
2022-10-04T04:27:18.892Z,15.21
2022-10-04T04:29:51.774Z,14.96
2022-10-04T04:32:23.166Z,15.07
2022-10-04T04:34:54.202Z,15.09
2022-10-04T04:37:22.133Z,15.19
2022-10-04T04:39:54.705Z,15.26
2022-10-04T04:42:27.563Z,15.24
2022-10-04T04:45:00.194Z,15.18
2022-10-04T04:47:35.018Z,15.28
2022-10-04T04:50:08.609Z,15.17
2022-10-04T04:52:37.236Z,15.07
2022-10-04T04:55:06.568Z,14.98
2022-10-04T04:57:35.099Z,15.02
2022-10-04T05:00:03.656Z,15.09
2022-10-04T05:02:35.165Z,15.02
2022-10-04T05:05:25.985Z,14.92
2022-10-04T05:08:14.172Z,14.78
2022-10-04T05:10:46.371Z,14.87
2022-10-04T05:13:16.127Z,14.91
2022-10-04T05:15:45.010Z,14.94
2022-10-04T05:18:30.497Z,15.08
2022-10-04T05:21:05.853Z,14.74
2022-10-04T05:23:34.989Z,14.81
2022-10-04T05:26:04.742Z,14.76
2022-10-04T05:28:34.400Z,14.75
2022-10-04T05:31:24.200Z,14.67
2022-10-04T05:33:57.132Z,14.60
2022-10-04T05:36:43.338Z,14.54
2022-10-04T05:39:20.079Z,14.45
2022-10-04T05:41:57.078Z,14.52
2022-10-04T05:44:27.666Z,14.48
2022-10-04T05:47:00.857Z,14.58
2022-10-04T05:49:34.867Z,14.48
2022-10-04T05:52:13.986Z,14.55
2022-10-04T05:54:41.940Z,14.45
2022-10-04T05:57:29.535Z,14.41
2022-10-04T06:00:17.447Z,14.41
2022-10-04T06:03:14.446Z,14.29
2022-10-04T06:05:49.948Z,14.27
2022-10-04T06:08:30.961Z,14.24
2022-10-04T06:11:20.686Z,14.34
2022-10-04T06:14:16.181Z,14.40
2022-10-04T06:16:59.759Z,14.28
2022-10-04T06:19:43.361Z,14.30
2022-10-04T06:22:17.560Z,14.23
2022-10-04T06:24:51.706Z,14.17
2022-10-04T06:27:26.630Z,14.22
2022-10-04T06:29:59.813Z,14.22
2022-10-04T06:32:52.993Z,14.26
2022-10-04T06:35:42.724Z,14.10
2022-10-04T06:38:44.449Z,14.04
2022-10-04T06:41:40.922Z,14.08
2022-10-04T06:44:25.265Z,14.04
2022-10-04T06:47:06.038Z,14.00
2022-10-04T06:49:40.330Z,13.90
2022-10-04T06:52:30.618Z,13.97
2022-10-04T06:55:34.544Z,14.06
2022-10-04T06:58:33.211Z,14.15
2022-10-04T07:01:08.012Z,14.10
2022-10-04T07:03:46.949Z,14.24
2022-10-04T07:06:24.447Z,14.24
2022-10-04T07:08:56.218Z,14.13
2022-10-04T07:11:28.446Z,14.09
2022-10-04T07:14:01.685Z,14.17
2022-10-04T07:16:36.348Z,14.34
2022-10-04T07:19:24.861Z,14.35
2022-10-04T07:22:00.277Z,14.41
2022-10-04T07:24:39.182Z,14.47
2022-10-04T07:27:11.269Z,14.53
2022-10-04T07:29:45.767Z,14.66
2022-10-04T07:32:21.330Z,14.70
2022-10-04T07:34:55.589Z,14.87
2022-10-04T07:37:26.692Z,14.75
2022-10-04T07:40:01.215Z,14.63
2022-10-04T07:42:32.652Z,14.63
2022-10-04T07:45:11.054Z,14.63
2022-10-04T07:47:39.457Z,14.75
2022-10-04T07:50:26.725Z,14.66
2022-10-04T07:53:08.576Z,14.67
2022-10-04T07:55:51.109Z,14.62
2022-10-04T07:58:27.529Z,14.66
2022-10-04T08:01:01.710Z,14.62
2022-10-04T08:03:56.166Z,14.67
2022-10-04T08:06:34.659Z,14.61
2022-10-04T08:09:24.175Z,14.57
2022-10-04T08:12:07.954Z,14.67
2022-10-04T08:14:52.459Z,14.58
2022-10-04T08:17:34.972Z,14.56
2022-10-04T08:20:22.191Z,14.68
2022-10-04T08:23:02.228Z,14.77
2022-10-04T08:25:42.539Z,14.66
2022-10-04T08:28:38.633Z,14.82
2022-10-04T08:31:21.410Z,14.77
2022-10-04T08:34:02.750Z,14.75
2022-10-04T08:36:50.042Z,14.81
2022-10-04T08:39:32.439Z,14.77
2022-10-04T08:42:41.895Z,14.93
2022-10-04T08:45:26.260Z,14.98
2022-10-04T08:48:24.696Z,15.01
2022-10-04T08:51:27.259Z,15.03
2022-10-04T08:54:46.616Z,15.06
2022-10-04T08:57:34.253Z,15.19
2022-10-04T09:00:17.846Z,15.29
2022-10-04T09:03:15.115Z,15.50
2022-10-04T09:05:54.849Z,15.24
2022-10-04T09:09:10.399Z,15.41
2022-10-04T09:11:51.111Z,15.61
2022-10-04T09:14:57.162Z,15.49
2022-10-04T09:17:37.119Z,15.47
2022-10-04T09:20:37.722Z,15.41
2022-10-04T09:23:20.749Z,15.14
2022-10-04T09:26:05.450Z,15.29
2022-10-04T09:29:05.817Z,15.53
2022-10-04T09:31:56.409Z,15.71
2022-10-04T09:34:37.476Z,15.78
2022-10-04T09:37:41.844Z,15.88
2022-10-04T09:40:47.068Z,15.54
2022-10-04T09:43:55.562Z,15.80
2022-10-04T09:46:52.106Z,15.89
2022-10-04T09:49:41.638Z,15.94
2022-10-04T09:52:25.309Z,15.82
2022-10-04T09:55:08.029Z,15.69
2022-10-04T09:58:01.902Z,15.69
2022-10-04T10:00:37.537Z,15.85
2022-10-04T10:03:48.095Z,15.85
2022-10-04T10:06:32.021Z,15.83
2022-10-04T10:09:12.104Z,15.75
2022-10-04T10:12:08.210Z,15.87
2022-10-04T10:15:01.896Z,15.93
2022-10-04T10:17:40.238Z,16.05
2022-10-04T10:20:33.378Z,16.04
2022-10-04T10:23:21.148Z,16.19
2022-10-04T10:26:05.932Z,16.28
2022-10-04T10:29:06.566Z,16.31
2022-10-04T10:31:53.513Z,16.34
2022-10-04T10:34:45.472Z,16.07
2022-10-04T10:37:18.874Z,16.19
2022-10-04T10:40:13.888Z,16.33
2022-10-04T10:42:59.877Z,16.34
2022-10-04T10:45:44.996Z,16.48
2022-10-04T10:48:17.973Z,16.53
2022-10-04T10:51:02.695Z,16.65
2022-10-04T10:53:57.113Z,16.68
2022-10-04T10:56:56.778Z,16.83
2022-10-04T11:00:00.598Z,17.02
2022-10-04T11:02:49.855Z,16.96
2022-10-04T11:05:51.362Z,17.02
2022-10-04T11:08:56.589Z,17.09
2022-10-04T11:11:45.272Z,17.15
2022-10-04T11:14:33.636Z,17.29
2022-10-04T11:17:43.257Z,17.16
2022-10-04T11:20:42.319Z,16.94
2022-10-04T11:23:44.733Z,16.91
2022-10-04T11:26:55.285Z,17.18
2022-10-04T11:29:41.453Z,17.23
2022-10-04T11:32:55.046Z,17.46
2022-10-04T11:36:00.338Z,17.51
2022-10-04T11:38:48.452Z,17.51
2022-10-04T11:41:24.007Z,17.43
2022-10-04T11:44:41.107Z,17.50
2022-10-04T11:47:24.869Z,17.53
2022-10-04T11:50:04.326Z,17.58
2022-10-04T11:53:13.893Z,17.61
2022-10-04T11:56:24.125Z,17.63
2022-10-04T11:59:27.653Z,17.58
2022-10-04T12:02:26.936Z,17.86
2022-10-04T12:05:26.826Z,17.98
2022-10-04T12:08:05.551Z,18.08
2022-10-04T12:10:38.653Z,17.97
2022-10-04T12:13:34.546Z,18.03
2022-10-04T12:16:33.877Z,18.20
2022-10-04T12:19:33.684Z,18.18
2022-10-04T12:22:24.835Z,18.18
2022-10-04T12:25:29.193Z,18.44
2022-10-04T12:28:15.973Z,18.17
2022-10-04T12:31:11.043Z,18.36
2022-10-04T12:33:46.505Z,18.52
2022-10-04T12:36:28.672Z,18.82
2022-10-04T12:39:16.669Z,18.94
2022-10-04T12:41:57.954Z,18.86
2022-10-04T12:44:41.016Z,18.75
2022-10-04T12:47:48.178Z,18.82
2022-10-04T12:50:27.211Z,18.94
2022-10-04T12:53:06.083Z,18.77
2022-10-04T12:55:53.981Z,18.78
2022-10-04T12:58:30.487Z,18.88
2022-10-04T13:01:07.011Z,18.83
2022-10-04T13:03:43.667Z,18.89
2022-10-04T13:06:21.451Z,18.92
2022-10-04T13:09:07.246Z,18.81
2022-10-04T13:12:03.327Z,18.81
2022-10-04T13:14:49.508Z,19.01
2022-10-04T13:17:36.167Z,19.10
2022-10-04T13:20:23.443Z,19.02
2022-10-04T13:22:59.356Z,18.94
2022-10-04T13:25:45.212Z,19.36
2022-10-04T13:28:24.518Z,19.35
2022-10-04T13:31:01.569Z,19.23
2022-10-04T13:33:40.343Z,19.50
2022-10-04T13:36:16.851Z,19.73
2022-10-04T13:39:19.324Z,20.03
2022-10-04T13:42:17.360Z,19.77
2022-10-04T13:45:10.439Z,19.54
2022-10-04T13:47:54.540Z,19.56
2022-10-04T13:50:38.829Z,19.72
2022-10-04T13:53:39.394Z,19.44
2022-10-04T13:56:40.185Z,19.29
2022-10-04T13:59:18.977Z,19.39
2022-10-04T14:02:26.098Z,19.52
2022-10-04T14:05:25.079Z,19.39
2022-10-04T14:08:14.897Z,19.53
2022-10-04T14:11:10.692Z,19.38
2022-10-04T14:14:10.202Z,19.50
2022-10-04T14:17:03.676Z,19.57
2022-10-04T14:20:04.291Z,19.75
2022-10-04T14:23:09.235Z,19.85
2022-10-04T14:26:08.696Z,19.71
2022-10-04T14:28:54.487Z,19.51
2022-10-04T14:31:47.889Z,19.32
2022-10-04T14:34:55.143Z,19.67
2022-10-04T14:38:09.554Z,19.75
2022-10-04T14:40:53.696Z,19.66
2022-10-04T14:43:51.501Z,19.68
2022-10-04T14:46:24.755Z,19.45
2022-10-04T14:49:07.925Z,19.56
2022-10-04T14:51:56.080Z,19.35
2022-10-04T14:54:37.497Z,19.38
2022-10-04T14:57:13.174Z,19.47
2022-10-04T14:59:55.555Z,19.39
2022-10-04T15:02:52.210Z,19.42
2022-10-04T15:05:57.864Z,19.48
2022-10-04T15:08:55.403Z,19.36
2022-10-04T15:11:41.262Z,19.46
2022-10-04T15:14:26.969Z,19.24
2022-10-04T15:16:58.878Z,19.18
2022-10-04T15:19:30.406Z,19.11
2022-10-04T15:22:07.748Z,18.99
2022-10-04T15:24:49.003Z,19.26
2022-10-04T15:27:53.353Z,19.16
2022-10-04T15:30:30.967Z,19.31
2022-10-04T15:33:17.794Z,19.12
2022-10-04T15:35:56.465Z,19.10
2022-10-04T15:38:32.730Z,19.06
2022-10-04T15:41:07.416Z,18.97
2022-10-04T15:43:42.490Z,18.95
2022-10-04T15:46:38.033Z,19.12
2022-10-04T15:49:26.589Z,18.99
2022-10-04T15:52:30.403Z,19.00
2022-10-04T15:55:26.120Z,19.17
2022-10-04T15:58:26.010Z,19.18
2022-10-04T16:01:13.325Z,18.95
2022-10-04T16:03:48.760Z,19.00
2022-10-04T16:06:23.965Z,19.08
2022-10-04T16:09:16.117Z,19.04
2022-10-04T16:12:20.079Z,19.06
2022-10-04T16:14:56.584Z,19.27
2022-10-04T16:17:45.613Z,19.03
2022-10-04T16:20:40.747Z,19.15
2022-10-04T16:23:33.071Z,19.06
2022-10-04T16:26:04.988Z,19.04
2022-10-04T16:29:13.430Z,19.07
2022-10-04T16:31:56.568Z,19.12
2022-10-04T16:34:35.287Z,18.98
2022-10-04T16:37:17.398Z,18.92
2022-10-04T16:40:00.443Z,18.99
2022-10-04T16:42:35.979Z,18.91
2022-10-04T16:45:33.945Z,18.94
2022-10-04T16:48:12.926Z,18.90
2022-10-04T16:51:01.688Z,18.81
2022-10-04T16:53:42.102Z,18.71
2022-10-04T16:56:16.670Z,18.62
2022-10-04T16:58:55.907Z,18.63
2022-10-04T17:02:07.935Z,18.70
2022-10-04T17:04:55.479Z,18.64
2022-10-04T17:07:36.818Z,18.60
2022-10-04T17:10:20.036Z,18.67
2022-10-04T17:12:56.525Z,18.57
2022-10-04T17:15:49.125Z,18.59
2022-10-04T17:18:27.820Z,18.44
2022-10-04T17:21:00.155Z,18.52
2022-10-04T17:23:55.540Z,18.54
2022-10-04T17:26:39.533Z,18.43
2022-10-04T17:29:17.644Z,18.60
2022-10-04T17:31:52.452Z,18.45
2022-10-04T17:34:33.433Z,18.25
2022-10-04T17:37:17.989Z,18.37
2022-10-04T17:39:50.089Z,18.14
2022-10-04T17:42:30.417Z,18.20
2022-10-04T17:45:30.644Z,18.12
2022-10-04T17:48:21.424Z,18.18
2022-10-04T17:51:17.172Z,18.11
2022-10-04T17:54:09.493Z,18.01
2022-10-04T17:56:43.912Z,18.03
2022-10-04T17:59:17.318Z,17.98
2022-10-04T18:01:48.665Z,18.06
2022-10-04T18:04:20.541Z,17.81
2022-10-04T18:06:55.909Z,17.69
2022-10-04T18:09:31.921Z,17.81
2022-10-04T18:12:03.007Z,17.82
2022-10-04T18:14:47.362Z,17.89
2022-10-04T18:17:27.757Z,17.86
2022-10-04T18:20:08.631Z,17.82
2022-10-04T18:22:46.505Z,17.89
2022-10-04T18:25:19.580Z,17.67
2022-10-04T18:27:51.501Z,17.78
2022-10-04T18:30:22.475Z,17.59
2022-10-04T18:32:52.506Z,17.58
2022-10-04T18:35:26.834Z,17.63
2022-10-04T18:37:57.156Z,17.57
2022-10-04T18:40:28.611Z,17.63
2022-10-04T18:43:00.269Z,17.66
2022-10-04T18:45:29.977Z,17.69
2022-10-04T18:48:00.743Z,17.71
2022-10-04T18:50:35.964Z,17.68
2022-10-04T18:53:19.803Z,17.72
2022-10-04T18:55:58.686Z,17.72
2022-10-04T18:59:18.187Z,17.69
2022-10-04T19:02:02.915Z,17.57
2022-10-04T19:04:42.263Z,17.67
2022-10-04T19:07:13.070Z,17.63
2022-10-04T19:10:00.164Z,17.60
2022-10-04T19:12:36.040Z,17.57
2022-10-04T19:15:16.442Z,17.61
2022-10-04T19:17:52.698Z,17.60
2022-10-04T19:20:29.054Z,17.58
2022-10-04T19:23:12.289Z,17.71
2022-10-04T19:26:09.791Z,17.71
2022-10-04T19:28:38.564Z,17.89
2022-10-04T19:31:18.641Z,17.88
2022-10-04T19:33:51.153Z,17.79
2022-10-04T19:36:42.266Z,17.70
2022-10-04T19:39:24.937Z,17.77
2022-10-04T19:41:59.511Z,17.48
2022-10-04T19:44:40.129Z,17.56
2022-10-04T19:47:20.482Z,17.67
2022-10-04T19:49:55.044Z,17.66
2022-10-04T19:52:33.772Z,17.82
2022-10-04T19:55:17.572Z,17.94
2022-10-04T19:57:48.116Z,17.90
2022-10-04T20:00:20.217Z,17.73
2022-10-04T20:02:49.095Z,17.76
2022-10-04T20:05:25.013Z,17.64
2022-10-04T20:07:57.521Z,17.68
2022-10-04T20:10:34.913Z,17.72
2022-10-04T20:13:24.156Z,17.80
2022-10-04T20:16:00.207Z,17.69
2022-10-04T20:19:05.160Z,17.85
2022-10-04T20:21:34.010Z,17.83
2022-10-04T20:24:02.541Z,17.72
2022-10-04T20:26:54.776Z,17.77
2022-10-04T20:30:01.851Z,17.92
2022-10-04T20:33:00.028Z,17.81
2022-10-04T20:36:05.729Z,17.76
2022-10-04T20:38:55.113Z,17.80
2022-10-04T20:42:20.073Z,17.71
2022-10-04T20:44:54.577Z,17.73
2022-10-04T20:47:37.262Z,17.76
2022-10-04T20:50:15.441Z,17.67
2022-10-04T20:52:48.892Z,17.89
2022-10-04T20:55:18.968Z,18.11
2022-10-04T20:57:46.968Z,17.71
2022-10-04T21:00:20.184Z,17.71
2022-10-04T21:02:48.339Z,17.84
2022-10-04T21:05:24.890Z,17.86
2022-10-04T21:08:14.404Z,17.80
2022-10-04T21:11:04.102Z,17.80
2022-10-04T21:13:57.431Z,17.84
2022-10-04T21:16:40.308Z,17.91
2022-10-04T21:19:51.353Z,17.92
2022-10-04T21:22:39.810Z,17.87
2022-10-04T21:25:32.971Z,17.85
2022-10-04T21:28:23.722Z,17.92
2022-10-04T21:30:51.649Z,17.97
2022-10-04T21:33:19.511Z,17.95
2022-10-04T21:35:50.804Z,18.01
2022-10-04T21:38:20.103Z,18.02
2022-10-04T21:40:47.993Z,17.94
2022-10-04T21:43:15.838Z,18.01
2022-10-04T21:45:43.722Z,18.00
2022-10-04T21:48:11.701Z,17.99
2022-10-04T21:50:39.647Z,17.89
2022-10-04T21:53:07.935Z,17.89
2022-10-04T21:55:37.222Z,17.99
2022-10-04T21:58:05.243Z,17.80
2022-10-04T22:00:34.150Z,17.99
2022-10-04T22:03:02.080Z,18.03
2022-10-04T22:05:30.286Z,17.88
2022-10-04T22:07:59.561Z,17.92
2022-10-04T22:10:27.640Z,18.03
2022-10-04T22:12:57.234Z,17.93
2022-10-04T22:15:26.659Z,17.89
2022-10-04T22:17:55.010Z,17.89
2022-10-04T22:20:23.453Z,17.78
2022-10-04T22:22:51.480Z,17.74
2022-10-04T22:25:21.290Z,17.84
2022-10-04T22:27:49.321Z,17.75
2022-10-04T22:30:25.379Z,17.73
2022-10-04T22:32:56.111Z,17.72
2022-10-04T22:35:24.166Z,17.72
2022-10-04T22:37:52.532Z,17.65
2022-10-04T22:40:22.265Z,17.62
2022-10-04T22:42:52.276Z,17.80
2022-10-04T22:45:24.761Z,17.67
2022-10-04T22:47:53.188Z,17.50
2022-10-04T22:50:31.564Z,17.61
2022-10-04T22:53:04.312Z,17.67
2022-10-04T22:55:32.612Z,17.62
2022-10-04T22:58:02.404Z,17.74
2022-10-04T23:00:31.700Z,17.67
2022-10-04T23:02:59.605Z,17.64
2022-10-04T23:05:28.911Z,17.68
2022-10-04T23:07:56.987Z,17.60
2022-10-04T23:10:24.928Z,17.69
2022-10-04T23:12:52.775Z,17.68
2022-10-04T23:15:21.712Z,17.64
2022-10-04T23:17:55.918Z,17.63
2022-10-04T23:20:24.193Z,17.48
2022-10-04T23:22:54.886Z,17.58
2022-10-04T23:25:27.258Z,17.54
2022-10-04T23:27:58.043Z,17.62
2022-10-04T23:30:26.314Z,17.64
2022-10-04T23:33:01.051Z,17.51
2022-10-04T23:35:32.689Z,17.50
2022-10-04T23:38:03.617Z,17.55
2022-10-04T23:40:31.787Z,17.55
2022-10-04T23:43:03.704Z,17.43
2022-10-04T23:45:32.153Z,17.53
2022-10-04T23:48:02.016Z,17.47
2022-10-04T23:50:32.704Z,17.46
2022-10-04T23:53:04.621Z,17.51
2022-10-04T23:55:35.970Z,17.35
2022-10-04T23:58:14.046Z,17.17
